Time;durP1;ratioP1;P1;durP2;ratioP2;P2;SDS_P1;SDS_P2;PMS_P1;PMS_P2;Temp;Humidity;BMP_temperature;BMP_pressure;BME280_temperature;BME280_humidity;BME280_pressure;Samples;Min_cycle;Max_cycle;Signal;HPM_P1;HPM_P2
2023/08/18 07:58:53;;;;;;;3.97;3.67;;;;;;;;;;6168298;23;20230;-92
2023/08/18 08:01:21;;;;;;;3.80;3.50;;;;;;;;;;6182010;23;20167;-92
2023/08/18 08:03:49;;;;;;;3.05;2.85;;;;;;;;;;6181402;23;20183;-91
2023/08/18 08:06:17;;;;;;;4.03;3.75;;;;;;;;;;6182346;23;20155;-91
2023/08/18 08:08:44;;;;;;;4.15;3.85;;;;;;;;;;6182590;23;20155;-91
2023/08/18 08:11:12;;;;;;;4.85;3.38;;;;;;;;;;6182639;23;20156;-92
2023/08/18 08:13:40;;;;;;;4.45;4.18;;;;;;;;;;6180922;23;20187;-92
2023/08/18 08:16:09;;;;;;;3.92;3.63;;;;;;;;;;6181468;23;20170;-92
2023/08/18 08:18:37;;;;;;;4.30;4.00;;;;;;;;;;6182627;23;20167;-90
2023/08/18 08:21:04;;;;;;;3.92;3.63;;;;;;;;;;6182393;23;20159;-91
2023/08/18 08:23:32;;;;;;;5.00;4.60;;;;;;;;;;6182317;23;20202;-92
2023/08/18 08:26:00;;;;;;;4.45;4.15;;;;;;;;;;6182563;23;20235;-91
2023/08/18 08:28:27;;;;;;;3.92;3.72;;;;;;;;;;6182661;23;20178;-93
2023/08/18 08:30:55;;;;;;;3.65;3.42;;;;;;;;;;6182381;23;20158;-91
2023/08/18 08:33:24;;;;;;;5.00;4.60;;;;;;;;;;6182102;23;20190;-91
2023/08/18 08:35:52;;;;;;;3.67;3.33;;;;;;;;;;6182479;23;20147;-93
2023/08/18 08:38:20;;;;;;;3.75;3.45;;;;;;;;;;6182491;23;20162;-93
2023/08/18 08:40:51;;;;;;;4.72;4.43;;;;;;;;;;6181639;23;20158;-93
2023/08/18 08:43:19;;;;;;;4.28;3.88;;;;;;;;;;6181274;23;20179;-93
2023/08/18 08:45:47;;;;;;;4.03;3.72;;;;;;;;;;6182314;23;20155;-92
2023/08/18 08:48:15;;;;;;;3.78;3.50;;;;;;;;;;6184456;23;20180;-92
2023/08/18 08:50:47;;;;;;;4.20;3.92;;;;;;;;;;6184215;23;20147;-92
2023/08/18 08:53:16;;;;;;;4.28;3.88;;;;;;;;;;6183980;23;20195;-92
2023/08/18 08:55:44;;;;;;;3.65;3.45;;;;;;;;;;6184469;23;20159;-91
2023/08/18 08:58:12;;;;;;;4.35;4.05;;;;;;;;;;6184174;23;20159;-91
2023/08/18 09:00:40;;;;;;;3.67;3.47;;;;;;;;;;6212430;23;20162;-92
2023/08/18 09:03:08;;;;;;;3.05;2.85;;;;;;;;;;6213737;23;20185;-92
2023/08/18 09:05:36;;;;;;;4.20;3.90;;;;;;;;;;6213984;23;20158;-92
2023/08/18 09:08:06;;;;;;;4.18;3.88;;;;;;;;;;6214092;23;20166;-90
2023/08/18 09:10:34;;;;;;;3.80;3.50;;;;;;;;;;6214019;23;20158;-91
2023/08/18 09:13:01;;;;;;;4.20;3.90;;;;;;;;;;6213623;23;20217;-93
2023/08/18 09:15:32;;;;;;;4.00;3.70;;;;;;;;;;6214055;23;20150;-93
2023/08/18 09:18:07;;;;;;;3.67;3.42;;;;;;;;;;6213841;23;20222;-92
2023/08/18 09:20:36;;;;;;;4.05;3.75;;;;;;;;;;6213893;23;20169;-90
2023/08/18 09:23:06;;;;;;;3.55;3.33;;;;;;;;;;6213539;23;20182;-93
2023/08/18 09:25:35;;;;;;;3.50;3.25;;;;;;;;;;6213937;23;20323;-93
2023/08/18 09:28:03;;;;;;;3.10;2.90;;;;;;;;;;6213917;23;20151;-94
2023/08/18 09:30:32;;;;;;;2.72;2.60;;;;;;;;;;6213676;23;20171;-93
2023/08/18 09:33:02;;;;;;;4.30;3.85;;;;;;;;;;6213582;23;20193;-94
2023/08/18 09:35:34;;;;;;;3.92;3.63;;;;;;;;;;6213984;23;20186;-93
2023/08/18 09:38:05;;;;;;;4.32;3.95;;;;;;;;;;6213705;23;20159;-94
2023/08/18 09:40:33;;;;;;;3.75;3.50;;;;;;;;;;6213617;23;20159;-93
2023/08/18 09:43:00;;;;;;;4.38;4.00;;;;;;;;;;6213460;23;20170;-92
2023/08/18 09:45:29;;;;;;;3.80;3.60;;;;;;;;;;6213731;23;20182;-92
2023/08/18 09:47:58;;;;;;;3.38;3.17;;;;;;;;;;6213590;23;20158;-92
2023/08/18 09:50:27;;;;;;;4.00;3.70;;;;;;;;;;6213578;23;20173;-92
2023/08/18 09:52:59;;;;;;;4.50;4.10;;;;;;;;;;6213297;23;20186;-91
2023/08/18 09:55:34;;;;;;;3.65;3.45;;;;;;;;;;6213665;23;20159;-92
2023/08/18 09:58:10;;;;;;;3.47;3.25;;;;;;;;;;6213270;23;20157;-93
2023/08/18 10:00:39;;;;;;;3.95;3.65;;;;;;;;;;6213553;23;20178;-92
2023/08/18 10:03:08;;;;;;;5.70;4.35;;;;;;;;;;6213242;23;20170;-91
2023/08/18 10:05:36;;;;;;;4.88;4.38;;;;;;;;;;6213513;23;20178;-91
2023/08/18 10:08:04;;;;;;;4.97;4.57;;;;;;;;;;6213493;23;20143;-92
2023/08/18 10:10:34;;;;;;;4.35;4.05;;;;;;;;;;6213437;23;20186;-93
2023/08/18 10:13:02;;;;;;;5.50;4.32;;;;;;;;;;6213080;23;20163;-92
2023/08/18 10:15:39;;;;;;;7.13;3.50;;;;;;;;;;6213201;23;20159;-93
2023/08/18 10:18:11;;;;;;;23.35;4.72;;;;;;;;;;6213244;23;20184;-94
2023/08/18 10:20:52;;;;;;;4.63;3.97;;;;;;;;;;6213238;23;20158;-94
2023/08/18 10:23:20;;;;;;;3.78;3.40;;;;;;;;;;6212985;23;20166;-92
2023/08/18 10:25:57;;;;;;;4.63;3.80;;;;;;;;;;6213146;23;20151;-93
2023/08/18 10:28:36;;;;;;;4.03;3.70;;;;;;;;;;6213024;23;20177;-94
2023/08/18 10:32:04;;;;;;;4.38;3.97;;;;;;;;;;6176190;23;20187;-95
2023/08/18 10:41:24;;;;;;;6.00;4.45;;;;;;;;;;6144877;23;20182;-93
2023/08/18 10:44:00;;;;;;;9.07;3.78;;;;;;;;;;6140308;23;20207;-95
2023/08/18 10:46:35;;;;;;;4.18;3.88;;;;;;;;;;6155124;23;20207;-92
2023/08/18 10:49:09;;;;;;;3.78;3.30;;;;;;;;;;6154953;23;20151;-93
2023/08/18 10:51:37;;;;;;;4.00;3.75;;;;;;;;;;6154892;23;20199;-93
2023/08/18 10:54:12;;;;;;;5.10;4.20;;;;;;;;;;6154538;23;20208;-93
2023/08/18 10:56:42;;;;;;;4.55;4.25;;;;;;;;;;6154982;23;20158;-93
2023/08/18 10:59:14;;;;;;;3.88;3.58;;;;;;;;;;6155053;23;20152;-91
2023/08/18 11:01:43;;;;;;;4.72;4.13;;;;;;;;;;6154917;23;20167;-92
2023/08/18 11:04:11;;;;;;;4.85;4.55;;;;;;;;;;6154566;23;20156;-92
2023/08/18 11:06:40;;;;;;;4.53;4.22;;;;;;;;;;6154910;23;20152;-92
2023/08/18 11:09:09;;;;;;;3.75;3.45;;;;;;;;;;6154938;23;20145;-92
2023/08/18 11:11:42;;;;;;;4.13;3.83;;;;;;;;;;6154436;23;20180;-93
2023/08/18 11:14:14;;;;;;;4.57;4.18;;;;;;;;;;6146663;23;20197;-95
2023/08/18 11:17:16;;;;;;;;;;;;;;;;;;;;;
2023/08/18 11:19:49;;;;;;;3.42;3.22;;;;;;;;;;6185162;23;20207;-96
2023/08/18 11:22:31;;;;;;;3.30;3.10;;;;;;;;;;6184844;23;20148;-94
2023/08/18 11:30:21;;;;;;;4.88;3.10;;;;;;;;;;6010724;23;20156;-96
2023/08/18 11:36:07;;;;;;;4.60;4.20;;;;;;;;;;6008373;23;20177;-93
2023/08/18 11:38:34;;;;;;;4.20;3.90;;;;;;;;;;6128655;23;20155;-93
2023/08/18 11:41:02;;;;;;;3.97;3.75;;;;;;;;;;6154794;23;20152;-93
2023/08/18 11:46:13;;;;;;;5.00;4.60;;;;;;;;;;6150987;23;20152;-95
2023/08/18 11:48:46;;;;;;;3.72;3.53;;;;;;;;;;6155169;23;20176;-96
2023/08/18 11:51:17;;;;;;;5.82;4.50;;;;;;;;;;6154686;23;20179;-95
2023/08/18 11:53:45;;;;;;;3.40;3.20;;;;;;;;;;6154562;23;20148;-95
2023/08/18 11:56:13;;;;;;;3.50;3.20;;;;;;;;;;6153279;23;20178;-95
2023/08/18 11:58:42;;;;;;;3.85;3.55;;;;;;;;;;6152800;23;20156;-94
2023/08/18 12:01:11;;;;;;;3.60;3.40;;;;;;;;;;6153196;23;20187;-94
2023/08/18 12:03:39;;;;;;;3.28;3.08;;;;;;;;;;6153166;23;20192;-95
2023/08/18 12:11:52;;;;;;;3.80;3.53;;;;;;;;;;6152635;23;20249;-96
2023/08/18 12:14:37;;;;;;;;;;;;;;;;;;;;;
2023/08/18 12:17:06;;;;;;;4.15;3.75;;;;;;;;;;6184905;23;20144;-94
2023/08/18 12:19:34;;;;;;;4.00;3.70;;;;;;;;;;6184393;23;20176;-95
2023/08/18 12:22:03;;;;;;;4.45;4.05;;;;;;;;;;6185162;23;20167;-95
2023/08/18 12:24:34;;;;;;;3.83;3.53;;;;;;;;;;6126963;23;20218;-94
2023/08/18 12:27:02;;;;;;;3.33;3.13;;;;;;;;;;6186628;23;20144;-94
2023/08/18 12:29:34;;;;;;;3.63;3.42;;;;;;;;;;6184753;23;20155;-96
2023/08/18 12:32:03;;;;;;;3.20;3.00;;;;;;;;;;6184523;23;20159;-94
2023/08/18 12:34:31;;;;;;;3.15;2.95;;;;;;;;;;6183747;23;20207;-95
2023/08/18 12:37:00;;;;;;;3.08;2.88;;;;;;;;;;6186756;23;20152;-96
2023/08/18 12:39:29;;;;;;;3.28;3.08;;;;;;;;;;6186720;23;20148;-95
2023/08/18 12:42:02;;;;;;;2.90;2.70;;;;;;;;;;6186948;23;20167;-96
2023/08/18 12:44:33;;;;;;;3.10;2.90;;;;;;;;;;6186918;23;20147;-96
2023/08/18 12:47:11;;;;;;;3.50;3.22;;;;;;;;;;6161897;23;20166;-96
2023/08/18 12:49:47;;;;;;;3.75;3.25;;;;;;;;;;6160821;23;20147;-96
2023/08/18 12:52:15;;;;;;;3.00;2.80;;;;;;;;;;6186829;23;20155;-96
2023/08/18 12:54:58;;;;;;;3.17;2.97;;;;;;;;;;6186599;23;20179;-96
2023/08/18 12:57:50;;;;;;;3.38;3.08;;;;;;;;;;6185388;23;20171;-95
2023/08/18 13:00:18;;;;;;;3.95;3.03;;;;;;;;;;6186200;23;20155;-96
2023/08/18 13:02:49;;;;;;;3.17;2.88;;;;;;;;;;6186259;23;20148;-96
2023/08/18 13:05:17;;;;;;;3.60;3.33;;;;;;;;;;6161740;23;20144;-95
2023/08/18 13:07:47;;;;;;;3.75;3.22;;;;;;;;;;6186228;23;20147;-96
2023/08/18 13:10:15;;;;;;;3.00;2.80;;;;;;;;;;6186144;23;20153;-96
2023/08/18 13:12:45;;;;;;;2.85;2.65;;;;;;;;;;6185843;23;20178;-95
2023/08/18 13:15:13;;;;;;;3.28;3.03;;;;;;;;;;6185812;23;20186;-95
2023/08/18 13:17:41;;;;;;;3.33;2.85;;;;;;;;;;6186031;23;20144;-95
2023/08/18 13:20:10;;;;;;;2.47;2.38;;;;;;;;;;6185871;23;20154;-96
2023/08/18 13:22:40;;;;;;;2.60;2.50;;;;;;;;;;6185691;23;20162;-95
2023/08/18 13:25:12;;;;;;;3.38;3.13;;;;;;;;;;6186240;23;20171;-96
2023/08/18 13:27:52;;;;;;;2.47;2.38;;;;;;;;;;6186213;23;20164;-95
2023/08/18 13:30:21;;;;;;;3.35;3.05;;;;;;;;;;6186089;23;20151;-95
2023/08/18 13:32:49;;;;;;;5.28;2.72;;;;;;;;;;6185727;23;20167;-93
2023/08/18 13:35:17;;;;;;;3.20;3.00;;;;;;;;;;6215821;23;20165;-94
2023/08/18 13:37:48;;;;;;;3.90;3.60;;;;;;;;;;6216058;23;20143;-95
2023/08/18 13:40:16;;;;;;;3.67;3.38;;;;;;;;;;6191035;23;20162;-95
2023/08/18 13:42:44;;;;;;;2.92;2.72;;;;;;;;;;6215583;23;20177;-95
2023/08/18 13:45:14;;;;;;;2.65;2.50;;;;;;;;;;6215448;23;20153;-96
2023/08/18 13:47:42;;;;;;;3.10;2.90;;;;;;;;;;6215616;23;20153;-94
2023/08/18 13:50:12;;;;;;;2.75;2.55;;;;;;;;;;6215451;23;20151;-95
2023/08/18 13:52:40;;;;;;;2.78;2.58;;;;;;;;;;6215041;23;20185;-95
2023/08/18 13:55:12;;;;;;;3.22;3.03;;;;;;;;;;6215386;23;20174;-96
2023/08/18 13:57:46;;;;;;;2.88;2.67;;;;;;;;;;6215425;23;20151;-96
2023/08/18 14:00:18;;;;;;;3.15;2.85;;;;;;;;;;6215481;23;20427;-95
2023/08/18 14:02:49;;;;;;;4.15;3.78;;;;;;;;;;6215236;23;20177;-94
2023/08/18 14:05:18;;;;;;;4.10;3.72;;;;;;;;;;6215333;23;20154;-95
2023/08/18 14:07:46;;;;;;;2.53;2.42;;;;;;;;;;6215302;23;20147;-95
2023/08/18 14:10:13;;;;;;;2.38;2.28;;;;;;;;;;6215633;23;20147;-95
2023/08/18 14:12:47;;;;;;;3.13;2.83;;;;;;;;;;6215643;23;20154;-94
2023/08/18 14:15:19;;;;;;;3.40;3.13;;;;;;;;;;6216134;23;20147;-95
2023/08/18 14:17:47;;;;;;;2.88;2.67;;;;;;;;;;6216294;23;20165;-95
2023/08/18 14:20:18;;;;;;;2.90;2.70;;;;;;;;;;6216276;23;20142;-95
2023/08/18 14:22:49;;;;;;;2.60;2.42;;;;;;;;;;6215997;23;20147;-95
2023/08/18 14:25:17;;;;;;;2.30;2.10;;;;;;;;;;6215686;23;20159;-95
2023/08/18 14:27:45;;;;;;;3.22;2.80;;;;;;;;;;6215612;23;20146;-95
2023/08/18 14:30:13;;;;;;;3.05;2.85;;;;;;;;;;6215620;23;20151;-96
2023/08/18 14:32:42;;;;;;;3.08;2.88;;;;;;;;;;6215093;23;20151;-95
2023/08/18 14:35:11;;;;;;;2.72;2.53;;;;;;;;;;6215044;23;20151;-94
2023/08/18 14:37:40;;;;;;;2.75;2.55;;;;;;;;;;6214826;23;20159;-94
2023/08/18 14:40:11;;;;;;;2.90;2.70;;;;;;;;;;6215036;23;20153;-94
2023/08/18 14:42:39;;;;;;;2.40;2.20;;;;;;;;;;6214876;23;20151;-94
2023/08/18 14:45:08;;;;;;;3.05;2.60;;;;;;;;;;6214804;23;20151;-94
2023/08/18 14:47:36;;;;;;;2.88;2.42;;;;;;;;;;6214892;23;20165;-95
2023/08/18 14:50:07;;;;;;;2.95;2.75;;;;;;;;;;6214911;23;20147;-94
2023/08/18 14:52:35;;;;;;;3.10;2.40;;;;;;;;;;6214771;23;20181;-94
2023/08/18 14:55:04;;;;;;;2.92;2.72;;;;;;;;;;6214976;23;20151;-96
2023/08/18 14:57:33;;;;;;;2.47;2.30;;;;;;;;;;6214620;23;20159;-96
2023/08/18 15:00:01;;;;;;;2.80;2.60;;;;;;;;;;6214645;23;20197;-94
2023/08/18 15:02:29;;;;;;;2.45;2.35;;;;;;;;;;6214551;23;20146;-96
2023/08/18 15:05:00;;;;;;;3.42;3.13;;;;;;;;;;6214860;23;20143;-94
2023/08/18 15:07:29;;;;;;;2.90;2.72;;;;;;;;;;6214785;23;20142;-94
2023/08/18 15:09:57;;;;;;;2.55;2.35;;;;;;;;;;6214574;23;20146;-95
2023/08/18 15:12:25;;;;;;;2.35;2.22;;;;;;;;;;6214292;23;20151;-95
2023/08/18 15:14:53;;;;;;;1.88;1.77;;;;;;;;;;6214271;23;20159;-95
2023/08/18 15:17:21;;;;;;;1.90;1.80;;;;;;;;;;6214301;23;20155;-95
2023/08/18 15:19:49;;;;;;;3.10;2.80;;;;;;;;;;6214702;23;20147;-96
2023/08/18 15:22:21;;;;;;;2.55;2.35;;;;;;;;;;6214595;23;20158;-94
2023/08/18 15:24:51;;;;;;;2.38;2.10;;;;;;;;;;6214477;23;20147;-94
2023/08/18 15:27:18;;;;;;;3.13;2.75;;;;;;;;;;6214418;23;20143;-95
2023/08/18 15:29:46;;;;;;;3.67;2.08;;;;;;;;;;6214504;23;20165;-96
2023/08/18 15:32:14;;;;;;;1.80;1.70;;;;;;;;;;6214478;23;20147;-95
2023/08/18 15:34:42;;;;;;;2.03;1.92;;;;;;;;;;6214176;23;20159;-94
2023/08/18 15:37:10;;;;;;;2.15;2.05;;;;;;;;;;6214337;23;20162;-94
2023/08/18 15:39:37;;;;;;;2.17;2.08;;;;;;;;;;6214379;23;20151;-94
2023/08/18 15:42:08;;;;;;;2.60;2.42;;;;;;;;;;6214121;23;20161;-95
2023/08/18 15:44:36;;;;;;;2.42;2.22;;;;;;;;;;6213951;23;20146;-96
2023/08/18 15:47:04;;;;;;;2.63;2.25;;;;;;;;;;6214267;23;20146;-94
2023/08/18 15:49:32;;;;;;;4.80;1.75;;;;;;;;;;6214306;23;20160;-95
2023/08/18 15:51:59;;;;;;;2.00;1.90;;;;;;;;;;6214070;23;20150;-94
2023/08/18 15:54:27;;;;;;;2.05;1.95;;;;;;;;;;6214146;23;20151;-93
2023/08/18 15:56:55;;;;;;;2.17;2.08;;;;;;;;;;6215051;23;20158;-95
2023/08/18 15:59:26;;;;;;;2.10;2.00;;;;;;;;;;6216514;23;20142;-95
2023/08/18 16:01:54;;;;;;;2.15;2.00;;;;;;;;;;6216165;23;20150;-94
2023/08/18 16:04:22;;;;;;;1.60;1.50;;;;;;;;;;6216329;23;20173;-93
2023/08/18 16:06:50;;;;;;;2.00;1.90;;;;;;;;;;6216369;23;20153;-94
2023/08/18 16:09:18;;;;;;;1.75;1.58;;;;;;;;;;6214952;23;20147;-94
2023/08/18 16:11:45;;;;;;;2.47;1.83;;;;;;;;;;6216046;23;20166;-94
2023/08/18 16:14:13;;;;;;;1.90;1.80;;;;;;;;;;6215993;23;20146;-95
2023/08/18 16:16:42;;;;;;;2.20;2.00;;;;;;;;;;6215971;23;20158;-95
2023/08/18 16:19:10;;;;;;;2.03;1.80;;;;;;;;;;6216153;23;20162;-94
2023/08/18 16:21:38;;;;;;;2.45;1.70;;;;;;;;;;6216001;23;20154;-95
2023/08/18 16:24:06;;;;;;;1.75;1.65;;;;;;;;;;6215766;23;20146;-94
2023/08/18 16:26:37;;;;;;;1.70;1.60;;;;;;;;;;6216173;23;20147;-94
2023/08/18 16:29:08;;;;;;;1.48;1.48;;;;;;;;;;6216591;23;20147;-94
2023/08/18 16:31:37;;;;;;;1.70;1.60;;;;;;;;;;6216882;23;20187;-94
2023/08/18 16:34:07;;;;;;;1.50;1.40;;;;;;;;;;6216112;23;20159;-93
2023/08/18 16:36:38;;;;;;;1.80;1.70;;;;;;;;;;6216777;23;20151;-94
2023/08/18 16:39:07;;;;;;;1.50;1.40;;;;;;;;;;6216388;23;20151;-94
2023/08/18 16:41:36;;;;;;;1.88;1.75;;;;;;;;;;6216345;23;20162;-95
2023/08/18 16:44:04;;;;;;;1.60;1.50;;;;;;;;;;6216107;23;20146;-95
2023/08/18 16:46:35;;;;;;;2.50;1.52;;;;;;;;;;6216428;23;20203;-94
2023/08/18 16:49:04;;;;;;;1.75;1.65;;;;;;;;;;6216713;23;20147;-93
2023/08/18 16:51:34;;;;;;;1.70;1.60;;;;;;;;;;6216292;23;20146;-95
2023/08/18 16:54:03;;;;;;;1.70;1.60;;;;;;;;;;6216231;23;20151;-94
2023/08/18 16:56:32;;;;;;;2.25;1.92;;;;;;;;;;6216145;23;20143;-95
2023/08/18 16:59:00;;;;;;;1.83;1.73;;;;;;;;;;6215904;23;20159;-94
2023/08/18 17:01:29;;;;;;;3.50;1.83;;;;;;;;;;6216145;23;20155;-95
2023/08/18 17:04:00;;;;;;;1.88;1.77;;;;;;;;;;6216153;23;20150;-96
2023/08/18 17:06:29;;;;;;;1.83;1.33;;;;;;;;;;6216310;23;20147;-94
2023/08/18 17:08:59;;;;;;;3.13;1.85;;;;;;;;;;6215853;23;20143;-95
2023/08/18 17:11:28;;;;;;;2.10;2.00;;;;;;;;;;6216908;23;20177;-95
2023/08/18 18:08:32;;;;;;;1.90;1.80;;;;;;;;;;6154725;23;20201;-90
2023/08/18 18:11:02;;;;;;;1.67;1.58;;;;;;;;;;6184494;23;20175;-93
2023/08/18 18:13:36;;;;;;;2.15;1.83;;;;;;;;;;6183942;23;20148;-93
2023/08/18 18:16:07;;;;;;;2.78;1.95;;;;;;;;;;6184270;23;20152;-93
2023/08/18 18:18:35;;;;;;;2.65;1.80;;;;;;;;;;6184459;23;20198;-92
2023/08/18 18:21:03;;;;;;;2.45;2.25;;;;;;;;;;6184189;23;20195;-93
2023/08/18 18:23:37;;;;;;;3.13;1.88;;;;;;;;;;6184073;23;20154;-92
2023/08/18 18:26:05;;;;;;;1.90;1.75;;;;;;;;;;6184525;23;20148;-93
2023/08/18 18:28:34;;;;;;;1.80;1.70;;;;;;;;;;6184080;23;20154;-95
2023/08/18 18:31:04;;;;;;;2.00;1.90;;;;;;;;;;6184354;23;20219;-95
2023/08/18 18:33:38;;;;;;;2.15;2.00;;;;;;;;;;6184469;23;20160;-94
2023/08/18 18:36:08;;;;;;;2.03;1.60;;;;;;;;;;6184520;23;20173;-93
2023/08/18 18:38:39;;;;;;;4.53;2.70;;;;;;;;;;6184079;23;20175;-92
2023/08/18 18:41:12;;;;;;;2.47;2.00;;;;;;;;;;6184194;23;20151;-92
2023/08/18 18:43:40;;;;;;;2.05;1.85;;;;;;;;;;6184492;23;20412;-93
2023/08/18 18:46:08;;;;;;;2.65;2.35;;;;;;;;;;6184281;23;20151;-92
2023/08/18 18:48:39;;;;;;;2.38;2.17;;;;;;;;;;6184260;23;20175;-95
2023/08/18 18:51:07;;;;;;;2.45;1.90;;;;;;;;;;6184225;23;20189;-93
2023/08/18 18:53:37;;;;;;;2.55;2.35;;;;;;;;;;6184172;23;20207;-93
2023/08/18 18:56:06;;;;;;;1.92;1.83;;;;;;;;;;6184294;23;20165;-93
2023/08/18 18:58:40;;;;;;;2.70;1.63;;;;;;;;;;6183742;23;20175;-93
2023/08/18 19:01:09;;;;;;;2.53;1.80;;;;;;;;;;6184085;23;20207;-93
2023/08/18 19:03:37;;;;;;;2.97;2.70;;;;;;;;;;6184106;23;20163;-94
2023/08/18 19:06:10;;;;;;;2.40;2.20;;;;;;;;;;6183995;23;20178;-93
2023/08/18 19:08:43;;;;;;;1.92;1.83;;;;;;;;;;6187427;23;20175;-92
2023/08/18 19:11:14;;;;;;;1.70;1.60;;;;;;;;;;6214160;23;20154;-92
2023/08/18 19:13:43;;;;;;;3.35;2.60;;;;;;;;;;6213974;23;20150;-93
2023/08/18 19:16:12;;;;;;;1.85;1.75;;;;;;;;;;6213892;23;20151;-93
2023/08/18 19:18:43;;;;;;;3.95;2.10;;;;;;;;;;6213597;23;20179;-94
2023/08/18 19:21:11;;;;;;;2.60;2.40;;;;;;;;;;6214022;23;20193;-93
2023/08/18 19:23:40;;;;;;;2.55;2.22;;;;;;;;;;6213737;23;20158;-94
2023/08/18 19:26:14;;;;;;;3.95;2.28;;;;;;;;;;6214045;23;20143;-94
2023/08/18 19:28:42;;;;;;;3.60;2.28;;;;;;;;;;6213950;23;20142;-94
2023/08/18 19:31:15;;;;;;;2.40;2.20;;;;;;;;;;6213453;23;20176;-93
2023/08/18 19:33:43;;;;;;;3.97;2.22;;;;;;;;;;6213869;23;20170;-94
2023/08/18 19:36:11;;;;;;;1.73;1.63;;;;;;;;;;6213913;23;20169;-93
2023/08/18 19:38:45;;;;;;;1.92;1.83;;;;;;;;;;6213505;23;20221;-94
2023/08/18 19:41:15;;;;;;;2.10;1.90;;;;;;;;;;6214044;23;20178;-94
2023/08/18 19:43:47;;;;;;;2.90;2.38;;;;;;;;;;6213546;23;20146;-94
2023/08/18 19:46:15;;;;;;;4.95;3.03;;;;;;;;;;6213800;23;20166;-93
2023/08/18 19:48:43;;;;;;;2.55;1.98;;;;;;;;;;6213966;23;20146;-93
2023/08/18 19:51:11;;;;;;;2.97;1.92;;;;;;;;;;6213589;23;20147;-93
2023/08/18 19:53:43;;;;;;;2.67;1.75;;;;;;;;;;6213614;23;20147;-91
2023/08/18 19:56:14;;;;;;;1.83;1.73;;;;;;;;;;6213868;23;20205;-93
2023/08/18 19:58:44;;;;;;;2.60;1.90;;;;;;;;;;6213618;23;20175;-93
2023/08/18 20:01:12;;;;;;;3.80;2.20;;;;;;;;;;6213942;23;20170;-93
2023/08/18 20:03:41;;;;;;;2.97;2.55;;;;;;;;;;6213713;23;20151;-93
2023/08/18 20:06:09;;;;;;;1.95;1.70;;;;;;;;;;6213720;23;20170;-95
2023/08/18 20:08:38;;;;;;;2.33;2.13;;;;;;;;;;6213600;23;20202;-95
2023/08/18 20:11:09;;;;;;;1.70;1.60;;;;;;;;;;6213975;23;20159;-94
2023/08/18 20:13:37;;;;;;;2.05;1.70;;;;;;;;;;6213728;23;20158;-93
2023/08/18 20:16:05;;;;;;;2.47;2.28;;;;;;;;;;6213651;23;20210;-93
2023/08/18 20:18:33;;;;;;;2.17;1.98;;;;;;;;;;6213731;23;20154;-93
2023/08/18 20:21:04;;;;;;;1.67;1.52;;;;;;;;;;6213877;23;20154;-93
2023/08/18 20:23:38;;;;;;;1.77;1.67;;;;;;;;;;6213510;23;20150;-95
2023/08/18 20:26:10;;;;;;;2.38;1.90;;;;;;;;;;6213712;23;20164;-93
2023/08/18 20:28:44;;;;;;;2.65;1.95;;;;;;;;;;6213824;23;20151;-93
2023/08/18 20:31:20;;;;;;;1.98;1.77;;;;;;;;;;6213738;23;20150;-93
2023/08/18 20:33:52;;;;;;;3.58;1.92;;;;;;;;;;6213352;23;20151;-92
2023/08/18 20:36:22;;;;;;;4.15;2.17;;;;;;;;;;6213677;23;20151;-94
2023/08/18 20:38:55;;;;;;;5.78;2.45;;;;;;;;;;6213513;23;20210;-92
2023/08/18 20:41:27;;;;;;;2.22;1.85;;;;;;;;;;6213880;23;20153;-94
2023/08/18 20:43:55;;;;;;;2.30;2.13;;;;;;;;;;6215122;23;20162;-94
2023/08/18 20:46:35;;;;;;;2.20;2.08;;;;;;;;;;6215445;23;20218;-93
2023/08/18 20:49:06;;;;;;;1.92;1.83;;;;;;;;;;6215361;23;20158;-93
2023/08/18 20:51:38;;;;;;;3.22;2.13;;;;;;;;;;6215471;23;20151;-92
2023/08/18 20:54:13;;;;;;;3.72;2.53;;;;;;;;;;6215311;23;20151;-93
2023/08/18 20:56:45;;;;;;;1.95;1.83;;;;;;;;;;6215603;23;20169;-94
2023/08/18 20:59:15;;;;;;;2.35;2.17;;;;;;;;;;6215530;23;20177;-95
2023/08/18 21:01:45;;;;;;;2.63;1.92;;;;;;;;;;6215652;23;20169;-92
2023/08/18 21:04:18;;;;;;;3.83;2.20;;;;;;;;;;6214888;23;20198;-93
2023/08/18 21:06:57;;;;;;;2.22;1.90;;;;;;;;;;6215471;23;20146;-94
2023/08/18 21:09:28;;;;;;;2.65;2.45;;;;;;;;;;6215171;23;20205;-93
2023/08/18 21:12:09;;;;;;;3.55;2.40;;;;;;;;;;6215126;23;20170;-93
2023/08/18 21:14:41;;;;;;;2.35;2.17;;;;;;;;;;6215378;23;20163;-95
2023/08/18 21:17:09;;;;;;;3.58;2.38;;;;;;;;;;6215098;23;20202;-93
2023/08/18 21:19:44;;;;;;;4.18;2.95;;;;;;;;;;6215037;23;20189;-93
2023/08/18 21:22:13;;;;;;;2.22;2.03;;;;;;;;;;6215097;23;20234;-93
2023/08/18 21:24:41;;;;;;;2.40;2.30;;;;;;;;;;6214999;23;20151;-94
2023/08/18 21:27:24;;;;;;;2.20;2.10;;;;;;;;;;6215074;23;20150;-93
2023/08/18 21:29:53;;;;;;;4.47;2.35;;;;;;;;;;6214825;23;20150;-92
2023/08/18 21:32:23;;;;;;;3.78;2.25;;;;;;;;;;6214689;23;20150;-93
2023/08/18 21:34:53;;;;;;;2.60;2.40;;;;;;;;;;6215065;23;20151;-94
2023/08/18 21:37:30;;;;;;;2.60;2.40;;;;;;;;;;6214756;23;20151;-93
2023/08/18 21:39:58;;;;;;;2.42;2.15;;;;;;;;;;6214715;23;20167;-94
2023/08/18 21:42:32;;;;;;;3.45;2.67;;;;;;;;;;6214852;23;20146;-94
2023/08/18 21:45:02;;;;;;;2.20;2.00;;;;;;;;;;6214676;23;20150;-93
2023/08/18 21:47:32;;;;;;;2.35;2.20;;;;;;;;;;6214712;23;20146;-93
2023/08/18 21:50:02;;;;;;;2.67;2.45;;;;;;;;;;6214611;23;20143;-93
2023/08/18 21:52:33;;;;;;;2.53;2.33;;;;;;;;;;6214645;23;20151;-94
2023/08/18 21:55:09;;;;;;;2.63;2.42;;;;;;;;;;6214486;23;20151;-94
2023/08/18 21:57:40;;;;;;;3.63;3.35;;;;;;;;;;6214921;23;20198;-92
2023/08/18 22:00:17;;;;;;;3.20;3.00;;;;;;;;;;6214575;23;20173;-94
2023/08/18 22:02:49;;;;;;;2.90;2.70;;;;;;;;;;6210997;23;20197;-92
2023/08/18 22:05:23;;;;;;;2.90;2.65;;;;;;;;;;6214550;23;20163;-93
2023/08/18 22:07:57;;;;;;;2.88;2.67;;;;;;;;;;6214376;23;20162;-93
2023/08/18 22:10:31;;;;;;;3.40;2.85;;;;;;;;;;6214374;23;20154;-93
2023/08/18 22:13:04;;;;;;;3.10;2.80;;;;;;;;;;6214401;23;20177;-93
2023/08/18 22:15:36;;;;;;;4.30;3.30;;;;;;;;;;6214429;23;20150;-94
2023/08/18 22:18:07;;;;;;;3.50;3.20;;;;;;;;;;6214323;23;20151;-93
2023/08/18 22:20:44;;;;;;;3.53;3.22;;;;;;;;;;6214357;23;20218;-93
2023/08/18 22:23:16;;;;;;;3.72;3.42;;;;;;;;;;6213335;23;20151;-94
2023/08/18 22:25:46;;;;;;;3.38;3.03;;;;;;;;;;6214058;23;20161;-95
2023/08/18 22:28:18;;;;;;;3.28;3.08;;;;;;;;;;6214474;23;20151;-94
2023/08/18 22:30:50;;;;;;;4.00;3.60;;;;;;;;;;6214347;23;20345;-93
2023/08/18 22:33:29;;;;;;;4.30;3.90;;;;;;;;;;6214128;23;20151;-96
2023/08/18 22:36:00;;;;;;;3.72;3.42;;;;;;;;;;6214620;23;20158;-93
2023/08/18 22:38:28;;;;;;;3.97;3.67;;;;;;;;;;6214259;23;20151;-92
2023/08/18 22:41:03;;;;;;;4.18;3.83;;;;;;;;;;6213745;23;20163;-94
2023/08/18 22:43:44;;;;;;;5.18;4.72;;;;;;;;;;6214158;23;20150;-93
2023/08/18 22:46:24;;;;;;;4.38;4.05;;;;;;;;;;6214140;23;20174;-93
2023/08/18 22:49:02;;;;;;;8.30;4.10;;;;;;;;;;6214123;23;20150;-93
2023/08/18 22:51:34;;;;;;;4.30;4.00;;;;;;;;;;6214187;23;20190;-93
2023/08/18 22:54:07;;;;;;;4.38;4.07;;;;;;;;;;6214036;23;20147;-96
2023/08/18 22:56:51;;;;;;;4.38;4.05;;;;;;;;;;6214220;23;20162;-94
2023/08/18 22:59:29;;;;;;;4.75;4.35;;;;;;;;;;6214094;23;20173;-93
2023/08/18 23:02:05;;;;;;;4.95;4.55;;;;;;;;;;6213859;23;20190;-94
2023/08/18 23:04:45;;;;;;;4.80;4.40;;;;;;;;;;6214089;23;20162;-93
2023/08/18 23:07:18;;;;;;;5.35;4.85;;;;;;;;;;6214036;23;20151;-94
2023/08/18 23:09:52;;;;;;;5.05;4.60;;;;;;;;;;6213809;23;20154;-93
2023/08/18 23:12:25;;;;;;;4.95;4.55;;;;;;;;;;6213811;23;20146;-93
2023/08/18 23:14:58;;;;;;;5.47;4.97;;;;;;;;;;6213982;23;20158;-95
2023/08/18 23:17:30;;;;;;;5.47;4.85;;;;;;;;;;6214003;23;20153;-96
2023/08/18 23:20:12;;;;;;;6.93;5.28;;;;;;;;;;6214064;23;20203;-93
2023/08/18 23:22:44;;;;;;;5.53;5.03;;;;;;;;;;6214074;23;20166;-93
2023/08/18 23:25:19;;;;;;;5.53;5.03;;;;;;;;;;6213880;23;20158;-93
2023/08/18 23:27:56;;;;;;;5.00;4.60;;;;;;;;;;6213971;23;20173;-95
2023/08/18 23:30:33;;;;;;;5.55;5.15;;;;;;;;;;6213947;23;20218;-95
2023/08/18 23:33:08;;;;;;;5.80;5.15;;;;;;;;;;6213908;23;20150;-92
2023/08/18 23:35:42;;;;;;;4.80;4.40;;;;;;;;;;6214001;23;20165;-94
2023/08/18 23:38:13;;;;;;;5.90;5.40;;;;;;;;;;6214042;23;20202;-94
2023/08/18 23:40:50;;;;;;;5.93;5.45;;;;;;;;;;6213937;23;20158;-94
2023/08/18 23:43:26;;;;;;;5.00;4.60;;;;;;;;;;6213748;23;20158;-93
2023/08/18 23:46:09;;;;;;;4.95;4.50;;;;;;;;;;6213839;23;20198;-93
2023/08/18 23:48:44;;;;;;;4.90;4.50;;;;;;;;;;6213916;23;20150;-93
2023/08/18 23:51:20;;;;;;;4.60;4.30;;;;;;;;;;6213442;23;20146;-92
2023/08/18 23:53:51;;;;;;;5.07;4.68;;;;;;;;;;6213715;23;20150;-93
2023/08/18 23:56:39;;;;;;;5.50;5.10;;;;;;;;;;6214030;23;20241;-94
2023/08/18 23:59:11;;;;;;;15.95;6.18;;;;;;;;;;6213682;23;20170;-92
